createdAt,value
2023-02-05T00:02:03.836Z,5.57
2023-02-05T00:05:00.891Z,5.45
2023-02-05T00:07:57.741Z,4.57
2023-02-05T00:10:54.586Z,4.05
2023-02-05T00:13:51.840Z,4.43
2023-02-05T00:16:49.116Z,5.22
2023-02-05T00:19:46.650Z,4.95
2023-02-05T00:22:43.499Z,4.25
2023-02-05T00:25:40.331Z,4.63
2023-02-05T00:28:38.035Z,4.82
2023-02-05T00:31:35.012Z,3.88
2023-02-05T00:34:31.925Z,4.32
2023-02-05T00:37:28.765Z,4.25
2023-02-05T00:40:25.582Z,4.40
2023-02-05T00:43:22.431Z,4.75
2023-02-05T00:46:19.356Z,3.95
2023-02-05T00:49:16.253Z,4.15
2023-02-05T00:52:13.189Z,3.47
2023-02-05T00:55:10.035Z,3.28
2023-02-05T00:58:06.889Z,3.00
2023-02-05T01:01:04.919Z,3.83
2023-02-05T01:04:01.778Z,3.42
2023-02-05T01:06:58.721Z,3.55
2023-02-05T01:09:55.605Z,4.13
2023-02-05T01:12:52.559Z,3.50
2023-02-05T01:15:49.410Z,3.03
2023-02-05T01:18:46.248Z,3.08
2023-02-05T01:21:43.088Z,3.83
2023-02-05T01:24:39.925Z,3.35
2023-02-05T01:27:37.615Z,3.58
2023-02-05T01:30:35.668Z,4.35
2023-02-05T01:33:32.540Z,3.70
2023-02-05T01:36:29.351Z,3.47
2023-02-05T01:39:26.194Z,4.15
2023-02-05T01:42:29.677Z,3.70
2023-02-05T01:45:26.887Z,3.90
2023-02-05T01:48:33.920Z,4.15
2023-02-05T01:51:33.654Z,2.78
2023-02-05T01:54:33.615Z,2.92
2023-02-05T01:57:30.600Z,3.78
2023-02-05T02:00:27.638Z,5.25
2023-02-05T02:03:27.954Z,4.72
2023-02-05T02:06:24.854Z,5.70
2023-02-05T02:09:22.330Z,5.03
2023-02-05T02:12:27.834Z,5.05
2023-02-05T02:15:27.333Z,4.18
2023-02-05T02:18:26.433Z,4.63
2023-02-05T02:21:27.104Z,3.50
2023-02-05T02:24:55.994Z,3.58
2023-02-05T02:28:04.517Z,4.15
2023-02-05T02:31:10.644Z,4.25
2023-02-05T02:34:32.785Z,3.90
2023-02-05T02:37:44.070Z,3.28
2023-02-05T02:40:54.545Z,3.33
2023-02-05T02:47:01.456Z,2.65
2023-02-05T02:50:04.886Z,3.03
2023-02-05T02:53:27.187Z,3.05
2023-02-05T02:56:27.634Z,3.40
2023-02-05T03:02:24.592Z,2.95
2023-02-05T03:05:24.259Z,3.20
2023-02-05T03:08:40.047Z,2.70
2023-02-05T03:11:36.914Z,2.88
2023-02-05T03:14:34.082Z,3.05
2023-02-05T03:17:31.155Z,3.00
2023-02-05T03:20:42.027Z,2.95
2023-02-05T03:23:38.964Z,3.10
2023-02-05T03:26:36.476Z,3.25
2023-02-05T03:29:38.946Z,2.95
2023-02-05T03:32:48.902Z,2.60
2023-02-05T03:36:52.637Z,1.85
2023-02-05T03:40:29.168Z,2.20
2023-02-05T03:43:45.650Z,2.08
2023-02-05T03:46:59.504Z,2.60
2023-02-05T03:50:12.716Z,2.17
2023-02-05T03:53:37.261Z,2.17
2023-02-05T03:56:48.980Z,2.58
2023-02-05T03:59:47.258Z,2.08
2023-02-05T04:02:44.806Z,2.08
2023-02-05T04:05:41.612Z,1.65
2023-02-05T04:08:38.571Z,2.60
2023-02-05T04:11:35.382Z,2.42
2023-02-05T04:14:32.215Z,2.40
2023-02-05T04:17:29.248Z,2.80
2023-02-05T04:20:26.057Z,2.75
2023-02-05T04:23:22.965Z,2.35
2023-02-05T04:26:20.007Z,2.50
2023-02-05T04:29:16.839Z,3.08
2023-02-05T04:32:14.225Z,2.88
2023-02-05T04:35:11.080Z,3.13
2023-02-05T04:38:07.873Z,3.00
2023-02-05T04:41:04.804Z,2.85
2023-02-05T04:44:01.641Z,2.42
2023-02-05T04:46:58.543Z,2.28
2023-02-05T04:49:55.567Z,2.22
2023-02-05T04:52:52.440Z,2.20
2023-02-05T04:55:49.252Z,2.60
2023-02-05T04:58:46.424Z,2.20
2023-02-05T05:01:43.265Z,2.30
2023-02-05T05:04:42.107Z,2.20
2023-02-05T05:07:40.087Z,2.17
2023-02-05T05:10:38.681Z,2.40
2023-02-05T05:13:36.309Z,2.10
2023-02-05T05:16:33.153Z,1.75
2023-02-05T05:19:30.051Z,1.85
2023-02-05T05:22:26.971Z,1.80
2023-02-05T05:25:23.780Z,1.80
2023-02-05T05:28:20.584Z,3.00
2023-02-05T05:31:19.459Z,3.20
2023-02-05T05:34:16.351Z,2.65
2023-02-05T05:37:13.169Z,2.97
2023-02-05T05:40:45.063Z,3.55
2023-02-05T05:43:47.473Z,4.38
2023-02-05T05:46:44.453Z,3.50
2023-02-05T05:49:41.257Z,3.00
2023-02-05T05:52:38.064Z,3.80
2023-02-05T05:55:35.122Z,5.65
2023-02-05T05:58:32.130Z,5.50
2023-02-05T06:01:29.021Z,6.93
2023-02-05T06:04:25.854Z,6.00
2023-02-05T06:07:22.678Z,5.78
2023-02-05T06:10:20.333Z,5.50
2023-02-05T06:13:17.137Z,4.35
2023-02-05T06:16:14.159Z,3.30
2023-02-05T06:19:10.979Z,3.28
2023-02-05T06:22:07.809Z,3.15
2023-02-05T06:25:05.544Z,3.20
2023-02-05T06:28:02.575Z,3.15
2023-02-05T06:30:59.463Z,2.47
2023-02-05T06:33:56.319Z,3.22
2023-02-05T06:36:53.196Z,3.13
2023-02-05T06:39:50.072Z,3.50
2023-02-05T06:42:46.937Z,3.90
2023-02-05T06:45:43.781Z,5.10
2023-02-05T06:48:40.566Z,3.97
2023-02-05T06:51:37.431Z,4.25
2023-02-05T06:54:34.244Z,3.88
2023-02-05T06:57:31.942Z,3.00
2023-02-05T07:00:30.966Z,3.30
2023-02-05T07:03:28.966Z,2.90
2023-02-05T07:06:26.811Z,4.10
2023-02-05T07:09:24.745Z,3.85
2023-02-05T07:12:22.323Z,3.30
2023-02-05T07:15:19.547Z,3.50
2023-02-05T07:18:16.585Z,2.47
2023-02-05T07:21:17.213Z,4.70
2023-02-05T07:24:15.163Z,3.33
2023-02-05T07:27:12.150Z,7.45
2023-02-05T07:30:09.983Z,8.07
2023-02-05T07:33:06.950Z,7.63
2023-02-05T07:36:06.734Z,5.88
2023-02-05T07:39:03.983Z,4.38
2023-02-05T07:42:01.240Z,7.95
2023-02-05T07:44:58.199Z,19.17
2023-02-05T07:47:55.027Z,15.50
2023-02-05T07:50:52.092Z,10.45
2023-02-05T07:53:49.757Z,7.22
2023-02-05T07:56:46.721Z,5.05
2023-02-05T07:59:43.690Z,6.32
2023-02-05T08:02:40.554Z,6.93
2023-02-05T08:05:39.066Z,15.00
2023-02-05T08:08:35.890Z,19.50
2023-02-05T08:11:32.847Z,22.48
2023-02-05T08:14:31.236Z,21.88
2023-02-05T08:17:28.058Z,19.08
2023-02-05T08:20:24.923Z,19.65
2023-02-05T08:23:22.102Z,23.95
2023-02-05T08:26:19.396Z,23.10
2023-02-05T08:29:16.237Z,16.50
2023-02-05T08:32:13.085Z,14.35
2023-02-05T08:35:09.942Z,16.67
2023-02-05T08:38:06.942Z,14.13
2023-02-05T08:41:12.555Z,12.88
2023-02-05T08:44:09.887Z,14.00
2023-02-05T08:47:06.787Z,14.98
2023-02-05T08:50:05.500Z,14.57
2023-02-05T08:53:02.398Z,15.23
2023-02-05T08:56:02.415Z,15.35
2023-02-05T08:58:59.225Z,18.77
2023-02-05T09:01:56.076Z,26.08
2023-02-05T09:05:01.879Z,23.88
2023-02-05T09:08:04.769Z,19.15
2023-02-05T09:11:02.107Z,18.63
2023-02-05T09:13:59.134Z,26.08
2023-02-05T09:16:56.133Z,30.17
2023-02-05T09:19:53.094Z,24.23
2023-02-05T09:22:52.170Z,20.98
2023-02-05T09:25:49.263Z,23.75
2023-02-05T09:28:47.274Z,22.80
2023-02-05T09:31:44.190Z,24.30
2023-02-05T09:34:41.272Z,23.63
2023-02-05T09:37:39.160Z,21.27
2023-02-05T09:41:02.653Z,16.05
2023-02-05T09:44:28.614Z,21.35
2023-02-05T09:47:39.678Z,15.57
2023-02-05T09:50:37.991Z,13.38
2023-02-05T09:53:42.744Z,13.95
2023-02-05T09:56:40.119Z,13.45
2023-02-05T09:59:37.239Z,13.85
2023-02-05T10:02:53.483Z,15.15
2023-02-05T10:06:29.991Z,15.85
2023-02-05T10:09:58.029Z,14.80
2023-02-05T10:13:35.983Z,16.15
2023-02-05T10:17:12.145Z,15.70
2023-02-05T10:20:44.778Z,16.92
2023-02-05T10:24:36.089Z,40.55
2023-02-05T10:28:20.001Z,31.90
2023-02-05T10:31:50.734Z,41.05
2023-02-05T10:38:26.300Z,23.95
2023-02-05T10:41:42.937Z,15.38
2023-02-05T10:44:49.719Z,11.98
2023-02-05T10:48:15.045Z,12.02
2023-02-05T10:51:15.842Z,8.55
2023-02-05T10:54:29.438Z,6.43
2023-02-05T10:57:35.996Z,10.57
2023-02-05T11:00:33.631Z,7.10
2023-02-05T11:03:31.123Z,5.78
2023-02-05T11:06:36.256Z,7.35
2023-02-05T11:09:35.284Z,7.18
2023-02-05T11:12:32.734Z,8.52
2023-02-05T11:15:32.742Z,8.38
2023-02-05T11:18:55.512Z,6.93
2023-02-05T11:22:02.695Z,8.57
2023-02-05T11:25:22.513Z,11.25
2023-02-05T11:28:30.640Z,6.33
2023-02-05T11:31:33.395Z,5.43
2023-02-05T11:34:30.290Z,6.45
2023-02-05T11:37:27.140Z,4.60
2023-02-05T11:40:30.959Z,4.35
2023-02-05T11:43:36.081Z,5.93
2023-02-05T11:46:43.315Z,4.40
2023-02-05T11:49:41.571Z,5.95
2023-02-05T11:52:38.471Z,3.33
2023-02-05T11:55:36.327Z,9.20
2023-02-05T11:58:37.596Z,9.45
2023-02-05T12:01:35.800Z,4.95
2023-02-05T12:04:44.968Z,6.35
2023-02-05T12:08:19.475Z,8.32
2023-02-05T12:12:03.693Z,10.02
2023-02-05T12:15:20.780Z,9.55
2023-02-05T12:18:58.911Z,18.67
2023-02-05T12:22:12.277Z,5.55
2023-02-05T12:25:22.910Z,3.58
2023-02-05T12:32:27.536Z,5.20
2023-02-05T12:35:47.238Z,5.38
2023-02-05T12:39:03.136Z,6.30
2023-02-05T12:42:27.820Z,5.45
2023-02-05T12:46:00.562Z,3.95
2023-02-05T12:49:56.332Z,3.90
2023-02-05T12:53:22.048Z,7.72
2023-02-05T12:56:48.383Z,3.45
2023-02-05T13:00:05.539Z,3.90
2023-02-05T13:03:44.631Z,4.07
2023-02-05T13:06:50.027Z,4.70
2023-02-05T13:09:59.656Z,4.53
2023-02-05T13:13:11.350Z,4.82
2023-02-05T13:16:16.107Z,5.22
2023-02-05T13:19:42.004Z,5.30
2023-02-05T13:23:07.362Z,5.25
2023-02-05T13:26:25.450Z,5.85
2023-02-05T13:29:27.091Z,6.00
2023-02-05T13:32:31.170Z,5.78
2023-02-05T13:35:38.559Z,8.10
2023-02-05T13:39:05.847Z,14.30
2023-02-05T13:43:12.370Z,14.77
2023-02-05T13:46:36.328Z,9.75
2023-02-05T13:50:04.640Z,6.35
2023-02-05T13:53:19.483Z,11.48
2023-02-05T13:56:37.502Z,7.78
2023-02-05T13:59:43.481Z,6.55
2023-02-05T14:02:49.440Z,15.52
2023-02-05T14:05:46.432Z,18.92
2023-02-05T14:08:44.125Z,7.47
2023-02-05T14:11:54.590Z,4.40
2023-02-05T14:15:36.258Z,4.55
2023-02-05T14:18:45.137Z,3.50
2023-02-05T14:21:44.808Z,3.28
2023-02-05T14:24:48.486Z,3.92
2023-02-05T14:27:49.725Z,5.57
2023-02-05T14:30:58.727Z,10.70
2023-02-05T14:34:33.150Z,6.47
2023-02-05T14:37:42.331Z,3.90
2023-02-05T14:40:39.515Z,4.15
2023-02-05T14:43:40.052Z,3.45
2023-02-05T14:46:43.059Z,3.25
2023-02-05T14:49:45.003Z,3.95
2023-02-05T14:52:52.359Z,4.45
2023-02-05T14:55:55.528Z,5.25
2023-02-05T14:59:01.858Z,5.43
2023-02-05T15:02:00.064Z,12.38
2023-02-05T15:04:58.932Z,7.32
2023-02-05T15:08:10.925Z,5.57
2023-02-05T15:11:53.875Z,10.93
2023-02-05T15:14:56.639Z,17.92
2023-02-05T15:17:55.308Z,23.08
2023-02-05T15:20:56.384Z,13.23
2023-02-05T15:24:22.748Z,18.70
2023-02-05T15:27:29.910Z,19.77
2023-02-05T15:30:33.371Z,11.32
2023-02-05T15:33:52.205Z,14.48
2023-02-05T15:37:23.191Z,8.80
2023-02-05T15:40:34.485Z,7.88
2023-02-05T15:43:31.293Z,6.07
2023-02-05T15:46:31.284Z,5.10
2023-02-05T15:49:36.006Z,5.53
2023-02-05T15:52:33.318Z,5.38
2023-02-05T15:55:30.628Z,5.53
2023-02-05T15:58:29.347Z,5.30
2023-02-05T16:01:36.024Z,4.70
2023-02-05T16:04:37.585Z,4.60
2023-02-05T16:07:43.260Z,4.88
2023-02-05T16:10:58.750Z,5.03
2023-02-05T16:14:17.177Z,5.57
2023-02-05T16:17:21.926Z,5.50
2023-02-05T16:20:38.950Z,4.25
2023-02-05T16:23:44.369Z,4.57
2023-02-05T16:26:46.880Z,4.40
2023-02-05T16:29:56.825Z,6.28
2023-02-05T16:32:56.848Z,5.40
2023-02-05T16:35:54.857Z,6.05
2023-02-05T16:38:58.397Z,5.35
2023-02-05T16:42:30.661Z,5.93
2023-02-05T16:45:31.151Z,4.75
2023-02-05T16:48:30.116Z,4.78
2023-02-05T16:51:45.140Z,4.95
2023-02-05T16:54:42.565Z,5.05
2023-02-05T16:57:42.188Z,5.15
2023-02-05T17:00:39.157Z,15.60
2023-02-05T17:03:40.343Z,17.80
2023-02-05T17:06:38.318Z,15.18
2023-02-05T17:09:38.866Z,10.52
2023-02-05T17:12:39.743Z,8.77
2023-02-05T17:15:40.318Z,9.25
2023-02-05T17:21:36.641Z,7.00
2023-02-05T17:24:33.462Z,6.50
2023-02-05T17:27:39.359Z,6.78
2023-02-05T17:30:36.614Z,6.78
2023-02-05T17:33:33.665Z,8.82
2023-02-05T17:36:30.937Z,6.65
2023-02-05T17:39:27.782Z,8.15
2023-02-05T17:42:28.476Z,16.13
2023-02-05T17:48:25.206Z,7.23
2023-02-05T17:51:24.394Z,11.60
2023-02-05T17:54:25.330Z,20.48
2023-02-05T17:57:23.482Z,29.65
2023-02-05T18:00:24.199Z,27.67
2023-02-05T18:03:21.162Z,19.92
2023-02-05T18:06:18.728Z,9.65
2023-02-05T18:09:16.507Z,6.57
2023-02-05T18:12:13.358Z,12.90
2023-02-05T18:15:11.558Z,14.23
2023-02-05T18:18:08.898Z,14.43
2023-02-05T18:21:08.819Z,19.48
2023-02-05T18:24:05.946Z,17.08
2023-02-05T18:27:05.961Z,12.30
2023-02-05T18:30:03.404Z,14.20
2023-02-05T18:33:02.143Z,13.63
2023-02-05T18:36:04.500Z,13.65
2023-02-05T18:39:01.408Z,13.98
2023-02-05T18:41:58.740Z,13.77
2023-02-05T18:44:55.686Z,10.25
2023-02-05T18:47:52.485Z,8.25
2023-02-05T18:50:49.340Z,10.60
2023-02-05T18:53:47.444Z,13.10
2023-02-05T18:56:44.279Z,14.00
2023-02-05T18:59:41.105Z,13.85
2023-02-05T19:02:39.883Z,14.25
2023-02-05T19:05:36.705Z,34.00
2023-02-05T19:08:33.653Z,31.95
2023-02-05T19:11:31.068Z,22.42
2023-02-05T19:14:28.392Z,14.75
2023-02-05T19:17:27.333Z,17.13
2023-02-05T19:20:24.227Z,10.07
2023-02-05T19:23:21.029Z,10.60
2023-02-05T19:26:22.071Z,12.00
2023-02-05T19:29:20.310Z,18.95
2023-02-05T19:32:17.133Z,15.70
2023-02-05T19:35:14.270Z,11.07
2023-02-05T19:38:11.151Z,11.15
2023-02-05T19:41:12.543Z,18.10
2023-02-05T19:44:09.576Z,12.73
2023-02-05T19:47:06.828Z,14.98
2023-02-05T19:50:03.713Z,19.40
2023-02-05T19:53:00.942Z,15.38
2023-02-05T19:56:17.219Z,12.98
2023-02-05T19:59:16.285Z,11.30
2023-02-05T20:02:19.068Z,12.57
2023-02-05T20:05:15.982Z,16.55
2023-02-05T20:08:12.824Z,28.80
2023-02-05T20:11:10.596Z,22.70
2023-02-05T20:14:08.406Z,17.33
2023-02-05T20:17:05.329Z,29.08
2023-02-05T20:20:13.884Z,24.48
2023-02-05T20:23:12.712Z,15.40
2023-02-05T20:26:10.546Z,15.15
2023-02-05T20:29:26.204Z,17.70
2023-02-05T20:32:23.047Z,12.85
2023-02-05T20:35:20.734Z,12.30
2023-02-05T20:38:17.528Z,15.68
2023-02-05T20:41:18.069Z,16.42
2023-02-05T20:44:15.826Z,16.90
2023-02-05T20:47:14.513Z,22.30
2023-02-05T20:50:11.852Z,21.95
2023-02-05T20:53:08.680Z,19.70
2023-02-05T20:56:09.408Z,23.90
2023-02-05T20:59:07.962Z,20.55
2023-02-05T21:02:05.524Z,20.38
2023-02-05T21:05:02.390Z,28.73
2023-02-05T21:07:59.240Z,24.70
2023-02-05T21:10:56.067Z,23.42
2023-02-05T21:13:53.538Z,25.45
2023-02-05T21:16:50.446Z,23.23
2023-02-05T21:19:47.253Z,21.58
2023-02-05T21:22:44.101Z,22.42
2023-02-05T21:25:40.966Z,17.63
2023-02-05T21:28:37.842Z,18.27
2023-02-05T21:31:40.360Z,17.02
2023-02-05T21:34:37.253Z,14.68
2023-02-05T21:37:34.073Z,16.33
2023-02-05T21:40:30.863Z,18.15
2023-02-05T21:43:27.666Z,19.58
2023-02-05T21:46:26.695Z,16.17
2023-02-05T21:49:23.513Z,15.40
2023-02-05T21:52:20.334Z,15.45
2023-02-05T21:55:17.141Z,14.32
2023-02-05T21:58:13.962Z,15.73
2023-02-05T22:01:18.792Z,16.75
2023-02-05T22:04:16.794Z,17.15
2023-02-05T22:07:13.619Z,15.93
2023-02-05T22:10:10.443Z,17.50
2023-02-05T22:13:07.248Z,17.55
2023-02-05T22:16:14.927Z,18.50
2023-02-05T22:19:11.750Z,18.20
2023-02-05T22:22:08.587Z,17.52
2023-02-05T22:25:05.756Z,18.80
2023-02-05T22:28:02.813Z,18.90
2023-02-05T22:31:12.339Z,17.85
2023-02-05T22:34:09.155Z,17.00
2023-02-05T22:37:06.273Z,17.02
2023-02-05T22:40:03.310Z,15.85
2023-02-05T22:43:00.124Z,15.75
2023-02-05T22:46:02.581Z,15.82
2023-02-05T22:49:02.575Z,16.70
2023-02-05T22:51:59.376Z,16.95
2023-02-05T22:54:56.169Z,16.30
2023-02-05T22:57:52.992Z,15.15
2023-02-05T23:00:49.866Z,15.90
2023-02-05T23:03:49.210Z,17.30
2023-02-05T23:06:46.274Z,11.98
2023-02-05T23:09:43.075Z,14.82
2023-02-05T23:12:39.901Z,13.85
2023-02-05T23:15:36.956Z,14.73
2023-02-05T23:18:34.850Z,12.98
2023-02-05T23:21:34.614Z,12.82
2023-02-05T23:24:31.427Z,11.43
2023-02-05T23:27:29.446Z,8.82
2023-02-05T23:30:26.400Z,5.55
2023-02-05T23:33:23.223Z,5.78
2023-02-05T23:36:20.298Z,6.93
2023-02-05T23:39:17.226Z,3.75
2023-02-05T23:42:14.066Z,3.85
2023-02-05T23:45:10.922Z,3.80
2023-02-05T23:48:07.756Z,3.72
2023-02-05T23:51:04.574Z,3.53
2023-02-05T23:54:02.446Z,4.05
2023-02-05T23:56:59.313Z,3.63
2023-02-05T23:59:56.131Z,4.28
